»·PEaware :: N9196G KBUR-KLAS

N9196G :: KBUR-KLAS

FLIGHT INFORMATION

Flight Status: Arrived
Operator: Privately registered:
United States
More flights under this callsign
Pilot: Christopher N. (41122)
Aircraft: SOCATA TBM-900
(TBM9)
More flights by this aircraft type
Origin: KBUR Bob Hope-Burbank
United States
Destination: KLAS Harry Reid Intl
United States
More flights between these airports :: More routes between these airports
Route: VNY3 DAG CRESO5
File this flight plan on PilotEdge
Remarks: I-5 Rating attempt
Altitude:
(Current/Filed)
13,000ft
Speed:
(Current/Filed)
230kts
Departed: 20-Sep-22 10:22 AM
Arrived: 20-Sep-22 11:18 AM
Distance/Time
Traveled:
193nm/0:56
Distance/Time
To Go:
Arrived

Flight Plot

Page will automatically refresh every two minutes.

Flight plan parsing failed; only flown route is shown


Map Options




Map Legend


Flown Route
Filed Route
Departure Airport
Arrival Airport
Navaid (VOR, NDB)
Fix

Horizontal Profiles

Position Reports

Time Latitude Longitude Heading Altitude Ground
Speed
20-Sep-22 09:45 34.196718 -118.352868 179 698ft 0kts
20-Sep-22 09:46 34.196718 -118.352868 179 698ft 0kts
20-Sep-22 09:47 34.196718 -118.352868 179 698ft 0kts
20-Sep-22 09:48 34.196718 -118.352868 179 698ft 0kts
20-Sep-22 09:48 34.196718 -118.352868 179 698ft 0kts
20-Sep-22 09:50 34.196718 -118.352868 179 698ft 0kts
20-Sep-22 09:51 34.196718 -118.352868 179 698ft 0kts
20-Sep-22 09:52 34.196718 -118.352868 179 698ft 0kts
20-Sep-22 09:53 34.196718 -118.352868 179 698ft 0kts
20-Sep-22 09:53 34.196718 -118.352868 179 698ft 0kts
20-Sep-22 09:54 34.196718 -118.352868 179 698ft 0kts
20-Sep-22 09:56 34.196718 -118.352868 179 698ft 0kts
20-Sep-22 09:57 34.196718 -118.352868 179 698ft 0kts
20-Sep-22 09:58 34.196718 -118.352868 179 698ft 0kts
20-Sep-22 09:58 34.196718 -118.352868 179 698ft 0kts
20-Sep-22 09:59 34.196718 -118.352868 179 698ft 0kts
20-Sep-22 10:01 34.196718 -118.352868 179 698ft 0kts
20-Sep-22 10:02 34.196718 -118.352868 179 698ft 0kts
20-Sep-22 10:02 34.196718 -118.352868 179 698ft 0kts
20-Sep-22 10:03 34.196718 -118.352868 179 698ft 0kts
20-Sep-22 10:04 34.196718 -118.352868 179 698ft 0kts
20-Sep-22 10:05 34.196718 -118.352868 179 698ft 0kts
20-Sep-22 10:06 34.196718 -118.352868 179 698ft 0kts
20-Sep-22 10:07 34.196718 -118.352868 179 698ft 0kts
20-Sep-22 10:08 34.196717 -118.352868 179 698ft 0kts
20-Sep-22 10:09 34.196717 -118.352868 179 698ft 0kts
20-Sep-22 10:10 34.196911 -118.353037 356 698ft 0kts
20-Sep-22 10:11 34.196911 -118.353037 356 698ft 0kts
20-Sep-22 10:12 34.196911 -118.353037 356 698ft 0kts
20-Sep-22 10:13 34.197267 -118.353990 291 700ft 4kts
20-Sep-22 10:14 34.199202 -118.355500 347 707ft 11kts
20-Sep-22 10:15 34.201836 -118.356221 347 718ft 8kts
20-Sep-22 10:16 34.204707 -118.357025 345 729ft 11kts
20-Sep-22 10:17 34.207917 -118.357913 347 747ft 10kts
20-Sep-22 10:18 34.210922 -118.358738 346 759ft 11kts
20-Sep-22 10:19 34.211576 -118.359076 310 762ft 0kts
20-Sep-22 10:20 34.211576 -118.359076 310 762ft 0kts
20-Sep-22 10:21 34.208945 -118.359479 167 755ft 82kts
20-Sep-22 10:22 34.183355 -118.373354 225 2603ft 128kts
20-Sep-22 10:23 34.157414 -118.408887 225 4042ft 172kts
20-Sep-22 10:24 34.162863 -118.452091 1 5108ft 151kts
20-Sep-22 10:25 34.203493 -118.454961 2 6804ft 150kts
20-Sep-22 10:26 34.242159 -118.437075 29 8520ft 159kts
20-Sep-22 10:27 34.285909 -118.415678 24 10913ft 180kts
20-Sep-22 10:28 34.333760 -118.393080 21 13049ft 213kts
20-Sep-22 10:29 34.399591 -118.362169 21 13009ft 279kts
20-Sep-22 10:30 34.471022 -118.321654 53 12968ft 284kts
20-Sep-22 10:31 34.518460 -118.244816 57 12997ft 285kts
20-Sep-22 10:32 34.566475 -118.167943 57 12994ft 286kts
20-Sep-22 10:33 34.614454 -118.091033 57 12992ft 286kts
20-Sep-22 10:34 34.638182 -118.004895 89 12991ft 270kts
20-Sep-22 10:35 34.647832 -117.914053 89 12986ft 271kts
20-Sep-22 10:36 34.657712 -117.823027 89 12982ft 271kts
20-Sep-22 10:37 34.671922 -117.732569 78 13005ft 277kts
20-Sep-22 10:38 34.695198 -117.642567 78 13025ft 280kts
20-Sep-22 10:39 34.718323 -117.552196 78 13039ft 280kts
20-Sep-22 10:40 34.741455 -117.461462 78 13040ft 281kts
20-Sep-22 10:41 34.764522 -117.370735 78 13040ft 281kts
20-Sep-22 10:42 34.787612 -117.279479 79 13033ft 282kts
20-Sep-22 10:43 34.810646 -117.188166 79 13022ft 282kts
20-Sep-22 10:44 34.833595 -117.096871 79 13007ft 282kts
20-Sep-22 10:45 34.856431 -117.005709 79 13005ft 280kts
20-Sep-22 10:46 34.879021 -116.915208 79 13013ft 278kts
20-Sep-22 10:47 34.901413 -116.825226 79 13012ft 277kts
20-Sep-22 10:48 34.923712 -116.735254 79 13013ft 277kts
20-Sep-22 10:49 34.945931 -116.645302 80 13014ft 277kts
20-Sep-22 10:50 34.971863 -116.556281 67 13017ft 285kts
20-Sep-22 10:51 35.009873 -116.471588 67 13015ft 285kts
20-Sep-22 10:52 35.047845 -116.386014 68 13016ft 286kts
20-Sep-22 10:53 35.085794 -116.300264 68 13014ft 286kts
20-Sep-22 10:54 35.123576 -116.214675 68 13004ft 285kts
20-Sep-22 10:55 35.161240 -116.129135 68 13005ft 285kts
20-Sep-22 10:56 35.198729 -116.043776 68 13005ft 285kts
20-Sep-22 10:57 35.236124 -115.958426 68 13006ft 285kts
20-Sep-22 10:58 35.273537 -115.872812 68 13005ft 285kts
20-Sep-22 10:59 35.310999 -115.787231 65 13001ft 287kts
20-Sep-22 11:00 35.365803 -115.713589 52 13002ft 293kts
20-Sep-22 11:01 35.420947 -115.640046 52 13027ft 293kts
20-Sep-22 11:02 35.476061 -115.566331 52 13027ft 293kts
20-Sep-22 11:03 35.531268 -115.492343 52 13028ft 293kts
20-Sep-22 11:04 35.586810 -115.417745 52 12625ft 305kts
20-Sep-22 11:05 35.644413 -115.340288 52 11508ft 300kts
20-Sep-22 11:06 35.711347 -115.289192 21 10925ft 279kts
20-Sep-22 11:07 35.787847 -115.249389 23 8686ft 297kts
20-Sep-22 11:08 35.860425 -115.212525 21 8067ft 261kts
20-Sep-22 11:09 35.925148 -115.181637 21 7952ft 246kts
20-Sep-22 11:10 35.991093 -115.150725 20 6907ft 259kts
20-Sep-22 11:11 36.054624 -115.113997 37 5738ft 233kts
20-Sep-22 11:12 36.107673 -115.082672 21 5537ft 168kts
20-Sep-22 11:13 36.140689 -115.096787 274 4944ft 105kts
20-Sep-22 11:14 36.137546 -115.130927 230 3848ft 100kts
20-Sep-22 11:15 36.115557 -115.147498 198 2794ft 86kts
20-Sep-22 11:16 36.094367 -115.159564 199 2108ft 70kts
20-Sep-22 11:17 36.089357 -115.163382 292 2127ft 0kts
20-Sep-22 11:18 36.089693 -115.164321 287 2130ft 6kts
20-Sep-22 11:19 36.086815 -115.166164 209 2143ft 13kts
20-Sep-22 11:20 36.086099 -115.167827 252 2151ft 0kts
20-Sep-22 11:21 36.086100 -115.167817 255 2151ft 0kts
20-Sep-22 11:22 36.086100 -115.167817 255 2151ft 0kts

Navigation Log

Ident Type
Flight plan parsing failed, navigation log unavailable